Altra — HKNC8 — position and weather

sailwx.info

Track history (hours):
 
Tides and Currents Weather Stations Pressure Air Temp Water Temp Dewpoint Dewpoint Depression Visibility Wind Speed Wind Dir Waves Ship Positions

Altra

Last reported at 2017-Nov-25 09:30 UTC. Time now 2017-Nov-25 09:54 UTC.
Position N 10°24' W 075°32'.

Length 29 m; draft 3.5 m.

Type: Tug. MMSI: 730151056.

Date/timePositionNaut miles runAvg speedWind from/ knotsBaromVisibWave heightAir tempDewpointWater temp
2017-Nov-25 09:30N 10°24' W 075°32'0 0.0
2017-Nov-25 09:00N 10°24' W 075°32'0 0.0
2017-Nov-25 08:30N 10°24' W 075°32'0 0.0
2017-Nov-25 08:00N 10°24' W 075°32'0 0.0
2017-Nov-25 07:30N 10°24' W 075°32'0 0.0
2017-Nov-25 07:00N 10°24' W 075°32'0 0.0
2017-Nov-25 06:30N 10°24' W 075°32'0 0.0
2017-Nov-25 05:59N 10°24' W 075°32'0 0.0
2017-Nov-25 05:30N 10°24' W 075°32'3 6.2
2017-Nov-25 05:00N 10°21' W 075°32'3 6.8
2017-Nov-25 04:30N 10°18' W 075°30'0 0.3
2017-Nov-25 04:00N 10°18' W 075°30'1 1.4
2017-Nov-25 03:30N 10°19' W 075°31'1 1.7
2017-Nov-25 03:00N 10°18' W 075°30'4 7.8
2017-Nov-25 02:30N 10°22' W 075°32'3 5.2
2017-Nov-25 02:00N 10°24' W 075°32'0 0.0
2017-Nov-25 01:30N 10°24' W 075°32'0 0.0
2017-Nov-25 01:00N 10°24' W 075°32'0 0.0
2017-Nov-25 00:30N 10°24' W 075°32'0 0.0
2017-Nov-25 00:00N 10°24' W 075°32'0 0.0
2017-Nov-24 23:30N 10°24' W 075°32'0 0.0
2017-Nov-24 23:00N 10°24' W 075°32'0 0.0
2017-Nov-24 22:30N 10°24' W 075°32'0 0.0
2017-Nov-24 22:00N 10°24' W 075°32'0 0.0
2017-Nov-24 21:30N 10°24' W 075°32'0 0.0
2017-Nov-24 21:00N 10°24' W 075°32'1 1.7
2017-Nov-24 20:30N 10°24' W 075°32'2 4.1
2017-Nov-24 20:00N 10°23' W 075°31'1 2.4
2017-Nov-24 19:30N 10°23' W 075°32'2 3.6
2017-Nov-24 19:00N 10°24' W 075°32'0 0.0
2017-Nov-24 18:29N 10°24' W 075°32'0 0.0
2017-Nov-24 18:00N 10°24' W 075°32'0 0.0
2017-Nov-24 17:30N 10°24' W 075°32'0 0.0
2017-Nov-24 17:00N 10°24' W 075°32'0 0.0
2017-Nov-24 16:30N 10°24' W 075°32'0 0.0
2017-Nov-24 16:00N 10°24' W 075°32'0 0.0
2017-Nov-24 15:30N 10°24' W 075°32'0 0.0
2017-Nov-24 14:59N 10°24' W 075°32'0 0.0
2017-Nov-24 14:30N 10°24' W 075°32'2 4.0
2017-Nov-24 14:00N 10°23' W 075°31'0 0.3
2017-Nov-24 13:30N 10°23' W 075°31'0 0.8
2017-Nov-24 12:59N 10°22' W 075°31'0 0.8
2017-Nov-24 12:30N 10°23' W 075°31'0 0.1
2017-Nov-24 12:00N 10°22' W 075°31'2 4.6
2017-Nov-24 11:30N 10°20' W 075°31'0 0.5
2017-Nov-24 11:00N 10°20' W 075°31'0 0.4
2017-Nov-24 10:30N 10°20' W 075°31'0 0.9
2017-Nov-24 10:00N 10°21' W 075°31'4 7.5
2017-Nov-24 09:30N 10°24' W 075°32'  
2017-Nov-17 22:30N 10°23' W 075°31'1 1.6
2017-Nov-17 21:58N 10°23' W 075°31'2 4.1
2017-Nov-17 21:30N 10°24' W 075°32'0 0.0
2017-Nov-17 21:00N 10°24' W 075°32'0 0.0
2017-Nov-17 20:29N 10°24' W 075°32'0 0.0
2017-Nov-17 20:00N 10°24' W 075°32'0 0.0
2017-Nov-17 19:30N 10°24' W 075°32'0 0.0
2017-Nov-17 19:00N 10°24' W 075°32'0 0.0
2017-Nov-17 18:30N 10°24' W 075°32'0 0.0
2017-Nov-17 17:59N 10°24' W 075°32'0 0.0
2017-Nov-17 17:30N 10°24' W 075°32'0 0.0
2017-Nov-17 17:00N 10°24' W 075°32'0 0.0
2017-Nov-17 16:30N 10°24' W 075°32'0 0.0
2017-Nov-17 16:00N 10°24' W 075°32'0 0.0
2017-Nov-17 15:30N 10°24' W 075°32'0 0.0
2017-Nov-17 15:00N 10°24' W 075°32'0 0.0
2017-Nov-17 14:30N 10°24' W 075°32'0 0.0
2017-Nov-17 14:00N 10°24' W 075°32'2 4.0
2017-Nov-17 13:30N 10°23' W 075°31'0 0.2
2017-Nov-17 13:00N 10°23' W 075°31'2 3.7
2017-Nov-17 12:30N 10°23' W 075°32'1 1.8
2017-Nov-17 12:00N 10°24' W 075°32'0 0.8
2017-Nov-17 11:30N 10°24' W 075°32'0 0.8
2017-Nov-17 11:00N 10°24' W 075°32'1 1.1
2017-Nov-17 10:30N 10°24' W 075°32'0 0.0
2017-Nov-17 10:00N 10°24' W 075°32'0 0.0
2017-Nov-17 09:30N 10°24' W 075°32'0 0.0
2017-Nov-17 09:00N 10°24' W 075°32'0 0.0
2017-Nov-17 08:08N 10°24' W 075°32'0 0.0
2017-Nov-17 08:00N 10°24' W 075°32'0 0.1
2017-Nov-17 07:30N 10°24' W 075°32'4 8.0
2017-Nov-17 06:59N 10°20' W 075°31'0 0.4
2017-Nov-17 06:30N 10°20' W 075°31'4 7.3
2017-Nov-17 06:00N 10°24' W 075°32'1 1.4
2017-Nov-17 05:30N 10°24' W 075°32'2 3.1
2017-Nov-17 05:00N 10°23' W 075°32'3 5.0
2017-Nov-17 04:30N 10°21' W 075°31'0 0.7
2017-Nov-17 04:00N 10°21' W 075°30'0 0.1
2017-Nov-17 03:30N 10°21' W 075°31'4 7.2
2017-Nov-17 03:00N 10°24' W 075°32'1 1.0
2017-Nov-17 02:30N 10°24' W 075°32'0 0.0
2017-Nov-17 02:00N 10°24' W 075°32'0 0.0
2017-Nov-17 01:30N 10°24' W 075°32'0 0.0
2017-Nov-17 01:00N 10°24' W 075°32'0 0.0
2017-Nov-17 00:30N 10°24' W 075°32'0 0.0
2017-Nov-17 00:00N 10°24' W 075°32'0 0.0
2017-Nov-16 23:30N 10°24' W 075°32'0 0.0
2017-Nov-16 23:00N 10°24' W 075°32'2 4.4
2017-Nov-16 22:30N 10°22' W 075°32'3 5.2
2017-Nov-16 22:00N 10°20' W 075°31'0 0.1
2017-Nov-16 21:30N 10°20' W 075°31'1 1.0
2017-Nov-16 21:01N 10°20' W 075°31'4 8.1
2017-Nov-16 20:30N 10°24' W 075°32'0 0.7
2017-Nov-16 20:00N 10°24' W 075°32'0 0.0
2017-Nov-16 19:30N 10°24' W 075°32'0 0.0
2017-Nov-16 19:00N 10°24' W 075°32'0 0.0
2017-Nov-16 18:30N 10°24' W 075°32'0 0.8
2017-Nov-16 18:00N 10°24' W 075°32'0 0.8
2017-Nov-16 17:29N 10°24' W 075°32'0 0.1
2017-Nov-16 17:00N 10°24' W 075°32'0 0.0
2017-Nov-16 16:30N 10°24' W 075°32'0 0.1
2017-Nov-16 16:00N 10°24' W 075°32'0 0.0
2017-Nov-16 15:30N 10°24' W 075°32'0 0.0
2017-Nov-16 15:00N 10°24' W 075°32'0 0.0
2017-Nov-16 14:30N 10°24' W 075°32'0 0.0
2017-Nov-16 14:00N 10°24' W 075°32'0 0.0
2017-Nov-16 13:30N 10°24' W 075°32'0 0.0
2017-Nov-16 13:00N 10°24' W 075°32'0 0.0
2017-Nov-16 12:30N 10°24' W 075°32'0 0.0
2017-Nov-16 12:00N 10°24' W 075°32'2 3.6
2017-Nov-16 11:30N 10°23' W 075°32'1 2.1
2017-Nov-16 11:00N 10°23' W 075°31'1 2.2
2017-Nov-16 10:30N 10°23' W 075°32'2 3.4
2017-Nov-16 10:00N 10°24' W 075°32'0 0.0
2017-Nov-16 09:30N 10°24' W 075°32'0 0.0
2017-Nov-16 08:06N 10°24' W 075°32'0 0.1
2017-Nov-16 08:00N 10°24' W 075°32'0 0.0
2017-Nov-16 07:30N 10°24' W 075°32'0 0.0
2017-Nov-16 06:59N 10°24' W 075°32'0 0.0
2017-Nov-16 06:30N 10°24' W 075°32'0 0.0
2017-Nov-16 06:00N 10°24' W 075°32'0 0.0
2017-Nov-16 05:30N 10°24' W 075°32'0 0.9
2017-Nov-16 05:00N 10°24' W 075°32'0 0.9
2017-Nov-16 04:30N 10°24' W 075°32'0 0.0
2017-Nov-16 04:00N 10°24' W 075°32'0 0.0
2017-Nov-16 03:30N 10°24' W 075°32'0 0.0
2017-Nov-16 03:00N 10°24' W 075°32'0 0.8
2017-Nov-16 02:29N 10°24' W 075°32'1 1.5
2017-Nov-16 02:00N 10°24' W 075°32'5 9.2
2017-Nov-16 01:30N 10°19' W 075°32'2 3.2
2017-Nov-16 01:00N 10°17' W 075°32'0 0.0
2017-Nov-16 00:30N 10°17' W 075°32'0 0.3
2017-Nov-16 00:00N 10°17' W 075°32'3 5.1
2017-Nov-15 23:30N 10°20' W 075°32'4 8.5
2017-Nov-15 23:00N 10°24' W 075°32'0 0.0
2017-Nov-15 22:30N 10°24' W 075°32'0 0.0
2017-Nov-15 22:00N 10°24' W 075°32'2 3.2
2017-Nov-15 21:30N 10°23' W 075°32'1 2.2
2017-Nov-15 21:00N 10°23' W 075°31'0 0.0
2017-Nov-15 20:30N 10°23' W 075°31'0 0.0
2017-Nov-15 20:00N 10°23' W 075°31'0 0.0
2017-Nov-15 19:30N 10°23' W 075°31'0 0.0
2017-Nov-15 19:00N 10°23' W 075°31'0 0.0
2017-Nov-15 18:30N 10°23' W 075°31'0 0.0
2017-Nov-15 18:00N 10°23' W 075°31'0 0.0
2017-Nov-15 17:30N 10°23' W 075°31'0 0.0
2017-Nov-15 17:00N 10°23' W 075°31'0 0.0
2017-Nov-15 16:30N 10°23' W 075°31'0 0.0
2017-Nov-15 16:00N 10°23' W 075°31'0 0.0
2017-Nov-15 15:30N 10°23' W 075°31'0 0.9
2017-Nov-15 15:00N 10°23' W 075°31'2 4.0
2017-Nov-15 14:30N 10°21' W 075°30'0 0.3
2017-Nov-15 14:00N 10°21' W 075°31'1 1.8
2017-Nov-15 13:29N 10°21' W 075°32'0 0.8
2017-Nov-15 13:00N 10°21' W 075°31'1 1.5
2017-Nov-15 12:30N 10°21' W 075°30'0 0.0
2017-Nov-15 12:00N 10°21' W 075°30'0 0.0
2017-Nov-15 11:30N 10°21' W 075°30'0 0.0
2017-Nov-15 11:00N 10°21' W 075°30'0 0.0
2017-Nov-15 10:30N 10°21' W 075°30'  
Track history (hours):
 
Tides and Currents Weather Stations Pressure Air Temp Water Temp Dewpoint Dewpoint Depression Visibility Wind Speed Wind Dir Waves Ship Positions

Altra

Last reported at 2017-Nov-25 09:30 UTC. Time now 2017-Nov-25 09:54 UTC.
Position N 10°24' W 075°32'.

Length 29 m; draft 3.5 m.

Type: Tug. MMSI: 730151056.

Date/timePositionNaut miles runAvg speedWind from/ knotsBaromVisibWave heightAir tempDewpointWater temp
2017-Nov-25 09:30N 10°24' W 075°32'0 0.0
2017-Nov-25 09:00N 10°24' W 075°32'0 0.0
2017-Nov-25 08:30N 10°24' W 075°32'0 0.0
2017-Nov-25 08:00N 10°24' W 075°32'0 0.0
2017-Nov-25 07:30N 10°24' W 075°32'0 0.0
2017-Nov-25 07:00N 10°24' W 075°32'0 0.0
2017-Nov-25 06:30N 10°24' W 075°32'0 0.0
2017-Nov-25 05:59N 10°24' W 075°32'0 0.0
2017-Nov-25 05:30N 10°24' W 075°32'3 6.2
2017-Nov-25 05:00N 10°21' W 075°32'3 6.8
2017-Nov-25 04:30N 10°18' W 075°30'0 0.3
2017-Nov-25 04:00N 10°18' W 075°30'1 1.4
2017-Nov-25 03:30N 10°19' W 075°31'1 1.7
2017-Nov-25 03:00N 10°18' W 075°30'4 7.8
2017-Nov-25 02:30N 10°22' W 075°32'3 5.2
2017-Nov-25 02:00N 10°24' W 075°32'0 0.0
2017-Nov-25 01:30N 10°24' W 075°32'0 0.0
2017-Nov-25 01:00N 10°24' W 075°32'0 0.0
2017-Nov-25 00:30N 10°24' W 075°32'0 0.0
2017-Nov-25 00:00N 10°24' W 075°32'0 0.0
2017-Nov-24 23:30N 10°24' W 075°32'0 0.0
2017-Nov-24 23:00N 10°24' W 075°32'0 0.0
2017-Nov-24 22:30N 10°24' W 075°32'0 0.0
2017-Nov-24 22:00N 10°24' W 075°32'0 0.0
2017-Nov-24 21:30N 10°24' W 075°32'0 0.0
2017-Nov-24 21:00N 10°24' W 075°32'1 1.7
2017-Nov-24 20:30N 10°24' W 075°32'2 4.1
2017-Nov-24 20:00N 10°23' W 075°31'1 2.4
2017-Nov-24 19:30N 10°23' W 075°32'2 3.6
2017-Nov-24 19:00N 10°24' W 075°32'0 0.0
2017-Nov-24 18:29N 10°24' W 075°32'0 0.0
2017-Nov-24 18:00N 10°24' W 075°32'0 0.0
2017-Nov-24 17:30N 10°24' W 075°32'0 0.0
2017-Nov-24 17:00N 10°24' W 075°32'0 0.0
2017-Nov-24 16:30N 10°24' W 075°32'0 0.0
2017-Nov-24 16:00N 10°24' W 075°32'0 0.0
2017-Nov-24 15:30N 10°24' W 075°32'0 0.0
2017-Nov-24 14:59N 10°24' W 075°32'0 0.0
2017-Nov-24 14:30N 10°24' W 075°32'2 4.0
2017-Nov-24 14:00N 10°23' W 075°31'0 0.3
2017-Nov-24 13:30N 10°23' W 075°31'0 0.8
2017-Nov-24 12:59N 10°22' W 075°31'0 0.8
2017-Nov-24 12:30N 10°23' W 075°31'0 0.1
2017-Nov-24 12:00N 10°22' W 075°31'2 4.6
2017-Nov-24 11:30N 10°20' W 075°31'0 0.5
2017-Nov-24 11:00N 10°20' W 075°31'0 0.4
2017-Nov-24 10:30N 10°20' W 075°31'0 0.9
2017-Nov-24 10:00N 10°21' W 075°31'4 7.5
2017-Nov-24 09:30N 10°24' W 075°32'  
2017-Nov-17 22:30N 10°23' W 075°31'1 1.6
2017-Nov-17 21:58N 10°23' W 075°31'2 4.1
2017-Nov-17 21:30N 10°24' W 075°32'0 0.0
2017-Nov-17 21:00N 10°24' W 075°32'0 0.0
2017-Nov-17 20:29N 10°24' W 075°32'0 0.0
2017-Nov-17 20:00N 10°24' W 075°32'0 0.0
2017-Nov-17 19:30N 10°24' W 075°32'0 0.0
2017-Nov-17 19:00N 10°24' W 075°32'0 0.0
2017-Nov-17 18:30N 10°24' W 075°32'0 0.0
2017-Nov-17 17:59N 10°24' W 075°32'0 0.0
2017-Nov-17 17:30N 10°24' W 075°32'0 0.0
2017-Nov-17 17:00N 10°24' W 075°32'0 0.0
2017-Nov-17 16:30N 10°24' W 075°32'0 0.0
2017-Nov-17 16:00N 10°24' W 075°32'0 0.0
2017-Nov-17 15:30N 10°24' W 075°32'0 0.0
2017-Nov-17 15:00N 10°24' W 075°32'0 0.0
2017-Nov-17 14:30N 10°24' W 075°32'0 0.0
2017-Nov-17 14:00N 10°24' W 075°32'2 4.0
2017-Nov-17 13:30N 10°23' W 075°31'0 0.2
2017-Nov-17 13:00N 10°23' W 075°31'2 3.7
2017-Nov-17 12:30N 10°23' W 075°32'1 1.8
2017-Nov-17 12:00N 10°24' W 075°32'0 0.8
2017-Nov-17 11:30N 10°24' W 075°32'0 0.8
2017-Nov-17 11:00N 10°24' W 075°32'1 1.1
2017-Nov-17 10:30N 10°24' W 075°32'0 0.0
2017-Nov-17 10:00N 10°24' W 075°32'0 0.0
2017-Nov-17 09:30N 10°24' W 075°32'0 0.0
2017-Nov-17 09:00N 10°24' W 075°32'0 0.0
2017-Nov-17 08:08N 10°24' W 075°32'0 0.0
2017-Nov-17 08:00N 10°24' W 075°32'0 0.1
2017-Nov-17 07:30N 10°24' W 075°32'4 8.0
2017-Nov-17 06:59N 10°20' W 075°31'0 0.4
2017-Nov-17 06:30N 10°20' W 075°31'4 7.3
2017-Nov-17 06:00N 10°24' W 075°32'1 1.4
2017-Nov-17 05:30N 10°24' W 075°32'2 3.1
2017-Nov-17 05:00N 10°23' W 075°32'3 5.0
2017-Nov-17 04:30N 10°21' W 075°31'0 0.7
2017-Nov-17 04:00N 10°21' W 075°30'0 0.1
2017-Nov-17 03:30N 10°21' W 075°31'4 7.2
2017-Nov-17 03:00N 10°24' W 075°32'1 1.0
2017-Nov-17 02:30N 10°24' W 075°32'0 0.0
2017-Nov-17 02:00N 10°24' W 075°32'0 0.0
2017-Nov-17 01:30N 10°24' W 075°32'0 0.0
2017-Nov-17 01:00N 10°24' W 075°32'0 0.0
2017-Nov-17 00:30N 10°24' W 075°32'0 0.0
2017-Nov-17 00:00N 10°24' W 075°32'0 0.0
2017-Nov-16 23:30N 10°24' W 075°32'0 0.0
2017-Nov-16 23:00N 10°24' W 075°32'2 4.4
2017-Nov-16 22:30N 10°22' W 075°32'3 5.2
2017-Nov-16 22:00N 10°20' W 075°31'0 0.1
2017-Nov-16 21:30N 10°20' W 075°31'1 1.0
2017-Nov-16 21:01N 10°20' W 075°31'4 8.1
2017-Nov-16 20:30N 10°24' W 075°32'0 0.7
2017-Nov-16 20:00N 10°24' W 075°32'0 0.0
2017-Nov-16 19:30N 10°24' W 075°32'0 0.0
2017-Nov-16 19:00N 10°24' W 075°32'0 0.0
2017-Nov-16 18:30N 10°24' W 075°32'0 0.8
2017-Nov-16 18:00N 10°24' W 075°32'0 0.8
2017-Nov-16 17:29N 10°24' W 075°32'0 0.1
2017-Nov-16 17:00N 10°24' W 075°32'0 0.0
2017-Nov-16 16:30N 10°24' W 075°32'0 0.1
2017-Nov-16 16:00N 10°24' W 075°32'0 0.0
2017-Nov-16 15:30N 10°24' W 075°32'0 0.0
2017-Nov-16 15:00N 10°24' W 075°32'0 0.0
2017-Nov-16 14:30N 10°24' W 075°32'0 0.0
2017-Nov-16 14:00N 10°24' W 075°32'0 0.0
2017-Nov-16 13:30N 10°24' W 075°32'0 0.0
2017-Nov-16 13:00N 10°24' W 075°32'0 0.0
2017-Nov-16 12:30N 10°24' W 075°32'0 0.0
2017-Nov-16 12:00N 10°24' W 075°32'2 3.6
2017-Nov-16 11:30N 10°23' W 075°32'1 2.1
2017-Nov-16 11:00N 10°23' W 075°31'1 2.2
2017-Nov-16 10:30N 10°23' W 075°32'2 3.4
2017-Nov-16 10:00N 10°24' W 075°32'0 0.0
2017-Nov-16 09:30N 10°24' W 075°32'0 0.0
2017-Nov-16 08:06N 10°24' W 075°32'0 0.1
2017-Nov-16 08:00N 10°24' W 075°32'0 0.0
2017-Nov-16 07:30N 10°24' W 075°32'0 0.0
2017-Nov-16 06:59N 10°24' W 075°32'0 0.0
2017-Nov-16 06:30N 10°24' W 075°32'0 0.0
2017-Nov-16 06:00N 10°24' W 075°32'0 0.0
2017-Nov-16 05:30N 10°24' W 075°32'0 0.9
2017-Nov-16 05:00N 10°24' W 075°32'0 0.9
2017-Nov-16 04:30N 10°24' W 075°32'0 0.0
2017-Nov-16 04:00N 10°24' W 075°32'0 0.0
2017-Nov-16 03:30N 10°24' W 075°32'0 0.0
2017-Nov-16 03:00N 10°24' W 075°32'0 0.8
2017-Nov-16 02:29N 10°24' W 075°32'1 1.5
2017-Nov-16 02:00N 10°24' W 075°32'5 9.2
2017-Nov-16 01:30N 10°19' W 075°32'2 3.2
2017-Nov-16 01:00N 10°17' W 075°32'0 0.0
2017-Nov-16 00:30N 10°17' W 075°32'0 0.3
2017-Nov-16 00:00N 10°17' W 075°32'3 5.1
2017-Nov-15 23:30N 10°20' W 075°32'4 8.5
2017-Nov-15 23:00N 10°24' W 075°32'0 0.0
2017-Nov-15 22:30N 10°24' W 075°32'0 0.0
2017-Nov-15 22:00N 10°24' W 075°32'2 3.2
2017-Nov-15 21:30N 10°23' W 075°32'1 2.2
2017-Nov-15 21:00N 10°23' W 075°31'0 0.0
2017-Nov-15 20:30N 10°23' W 075°31'0 0.0
2017-Nov-15 20:00N 10°23' W 075°31'0 0.0
2017-Nov-15 19:30N 10°23' W 075°31'0 0.0
2017-Nov-15 19:00N 10°23' W 075°31'0 0.0
2017-Nov-15 18:30N 10°23' W 075°31'0 0.0
2017-Nov-15 18:00N 10°23' W 075°31'0 0.0
2017-Nov-15 17:30N 10°23' W 075°31'0 0.0
2017-Nov-15 17:00N 10°23' W 075°31'0 0.0
2017-Nov-15 16:30N 10°23' W 075°31'0 0.0
2017-Nov-15 16:00N 10°23' W 075°31'0 0.0
2017-Nov-15 15:30N 10°23' W 075°31'0 0.9
2017-Nov-15 15:00N 10°23' W 075°31'2 4.0
2017-Nov-15 14:30N 10°21' W 075°30'0 0.3
2017-Nov-15 14:00N 10°21' W 075°31'1 1.8
2017-Nov-15 13:29N 10°21' W 075°32'0 0.8
2017-Nov-15 13:00N 10°21' W 075°31'1 1.5
2017-Nov-15 12:30N 10°21' W 075°30'0 0.0
2017-Nov-15 12:00N 10°21' W 075°30'0 0.0
2017-Nov-15 11:30N 10°21' W 075°30'0 0.0
2017-Nov-15 11:00N 10°21' W 075°30'0 0.0
2017-Nov-15 10:30N 10°21' W 075°30'  

Dump ship's entire track history